sensor_id;sensor_type;location;lat;lon;timestamp;temperature;humidity
6210;DHT22;3138;52.550;13.148;2022-07-10T00:00:25;13.80;99.90
6210;DHT22;3138;52.550;13.148;2022-07-10T00:02:52;13.90;99.90
6210;DHT22;3138;52.550;13.148;2022-07-10T00:05:21;13.90;99.90
6210;DHT22;3138;52.550;13.148;2022-07-10T00:07:48;13.90;99.90
6210;DHT22;3138;52.550;13.148;2022-07-10T00:10:16;13.90;99.90
6210;DHT22;3138;52.550;13.148;2022-07-10T00:12:43;13.90;99.90
6210;DHT22;3138;52.550;13.148;2022-07-10T00:15:10;13.90;99.90
6210;DHT22;3138;52.550;13.148;2022-07-10T00:17:37;14.00;99.90
6210;DHT22;3138;52.550;13.148;2022-07-10T00:20:07;14.00;99.90
6210;DHT22;3138;52.550;13.148;2022-07-10T00:22:36;14.00;99.90
6210;DHT22;3138;52.550;13.148;2022-07-10T00:25:04;14.00;99.90
6210;DHT22;3138;52.550;13.148;2022-07-10T00:27:30;14.00;99.90
6210;DHT22;3138;52.550;13.148;2022-07-10T00:29:57;14.00;99.90
6210;DHT22;3138;52.550;13.148;2022-07-10T00:32:24;14.00;99.90
6210;DHT22;3138;52.550;13.148;2022-07-10T00:34:51;13.90;99.90
6210;DHT22;3138;52.550;13.148;2022-07-10T00:37:21;14.00;99.90
6210;DHT22;3138;52.550;13.148;2022-07-10T00:39:57;14.00;99.90
6210;DHT22;3138;52.550;13.148;2022-07-10T00:42:26;14.00;99.90
6210;DHT22;3138;52.550;13.148;2022-07-10T00:44:53;14.00;99.90
6210;DHT22;3138;52.550;13.148;2022-07-10T00:47:19;14.00;99.90
6210;DHT22;3138;52.550;13.148;2022-07-10T00:49:46;14.00;99.90
6210;DHT22;3138;52.550;13.148;2022-07-10T00:52:14;14.00;99.90
6210;DHT22;3138;52.550;13.148;2022-07-10T00:54:43;13.90;99.90
6210;DHT22;3138;52.550;13.148;2022-07-10T00:57:13;13.90;99.90
6210;DHT22;3138;52.550;13.148;2022-07-10T00:59:41;14.00;99.90
6210;DHT22;3138;52.550;13.148;2022-07-10T01:02:08;14.00;99.90
6210;DHT22;3138;52.550;13.148;2022-07-10T01:04:35;14.00;99.90
6210;DHT22;3138;52.550;13.148;2022-07-10T01:07:03;14.00;99.90
6210;DHT22;3138;52.550;13.148;2022-07-10T01:09:30;13.90;99.90
6210;DHT22;3138;52.550;13.148;2022-07-10T01:11:59;14.00;99.90
6210;DHT22;3138;52.550;13.148;2022-07-10T01:14:28;13.90;99.90
6210;DHT22;3138;52.550;13.148;2022-07-10T01:16:56;13.90;99.90
6210;DHT22;3138;52.550;13.148;2022-07-10T01:19:23;13.90;99.90
6210;DHT22;3138;52.550;13.148;2022-07-10T01:21:51;14.00;99.90
6210;DHT22;3138;52.550;13.148;2022-07-10T01:24:18;13.90;99.90
6210;DHT22;3138;52.550;13.148;2022-07-10T01:26:45;13.90;99.90
6210;DHT22;3138;52.550;13.148;2022-07-10T01:29:11;13.90;99.90
6210;DHT22;3138;52.550;13.148;2022-07-10T01:31:38;13.90;99.90
6210;DHT22;3138;52.550;13.148;2022-07-10T01:34:07;13.80;99.90
6210;DHT22;3138;52.550;13.148;2022-07-10T01:36:34;13.90;99.90
6210;DHT22;3138;52.550;13.148;2022-07-10T01:39:03;13.90;99.90
6210;DHT22;3138;52.550;13.148;2022-07-10T01:41:30;13.90;99.90
6210;DHT22;3138;52.550;13.148;2022-07-10T01:43:57;13.90;99.90
6210;DHT22;3138;52.550;13.148;2022-07-10T01:46:24;13.90;99.90
6210;DHT22;3138;52.550;13.148;2022-07-10T01:48:51;13.80;99.90
6210;DHT22;3138;52.550;13.148;2022-07-10T01:51:18;13.80;99.90
6210;DHT22;3138;52.550;13.148;2022-07-10T01:53:44;13.80;99.90
6210;DHT22;3138;52.550;13.148;2022-07-10T01:56:14;13.80;99.90
6210;DHT22;3138;52.550;13.148;2022-07-10T01:58:41;13.80;99.90
6210;DHT22;3138;52.550;13.148;2022-07-10T02:01:08;13.70;99.90
6210;DHT22;3138;52.550;13.148;2022-07-10T02:03:35;13.70;99.90
6210;DHT22;3138;52.550;13.148;2022-07-10T02:06:20;13.70;99.90
6210;DHT22;3138;52.550;13.148;2022-07-10T02:08:46;13.60;99.90
6210;DHT22;3138;52.550;13.148;2022-07-10T02:11:14;13.60;99.90
6210;DHT22;3138;52.550;13.148;2022-07-10T02:13:41;13.60;99.90
6210;DHT22;3138;52.550;13.148;2022-07-10T02:16:08;13.60;99.90
6210;DHT22;3138;52.550;13.148;2022-07-10T02:18:36;13.60;99.90
6210;DHT22;3138;52.550;13.148;2022-07-10T02:21:03;13.50;99.90
6210;DHT22;3138;52.550;13.148;2022-07-10T02:23:30;13.50;99.90
6210;DHT22;3138;52.550;13.148;2022-07-10T02:25:57;13.50;99.90
6210;DHT22;3138;52.550;13.148;2022-07-10T02:28:25;13.40;99.90
6210;DHT22;3138;52.550;13.148;2022-07-10T02:30:51;13.40;99.90
6210;DHT22;3138;52.550;13.148;2022-07-10T02:33:19;13.40;99.90
6210;DHT22;3138;52.550;13.148;2022-07-10T02:35:45;13.40;99.90
6210;DHT22;3138;52.550;13.148;2022-07-10T02:38:12;13.40;99.90
6210;DHT22;3138;52.550;13.148;2022-07-10T02:40:39;13.40;99.90
6210;DHT22;3138;52.550;13.148;2022-07-10T02:43:06;13.30;99.90
6210;DHT22;3138;52.550;13.148;2022-07-10T02:45:34;13.30;99.90
6210;DHT22;3138;52.550;13.148;2022-07-10T02:48:01;13.30;99.90
6210;DHT22;3138;52.550;13.148;2022-07-10T02:50:27;13.20;99.90
6210;DHT22;3138;52.550;13.148;2022-07-10T02:52:54;13.30;99.90
6210;DHT22;3138;52.550;13.148;2022-07-10T02:55:21;13.30;99.90
6210;DHT22;3138;52.550;13.148;2022-07-10T02:57:48;13.20;99.90
6210;DHT22;3138;52.550;13.148;2022-07-10T03:00:14;13.20;99.90
6210;DHT22;3138;52.550;13.148;2022-07-10T03:02:42;13.20;99.90
6210;DHT22;3138;52.550;13.148;2022-07-10T03:05:09;13.20;99.90
6210;DHT22;3138;52.550;13.148;2022-07-10T03:07:36;13.10;99.90
6210;DHT22;3138;52.550;13.148;2022-07-10T03:10:03;13.10;99.90
6210;DHT22;3138;52.550;13.148;2022-07-10T03:12:30;13.00;99.90
6210;DHT22;3138;52.550;13.148;2022-07-10T03:14:57;13.10;99.90
6210;DHT22;3138;52.550;13.148;2022-07-10T03:17:24;13.10;99.90
6210;DHT22;3138;52.550;13.148;2022-07-10T03:19:52;13.10;99.90
6210;DHT22;3138;52.550;13.148;2022-07-10T03:22:19;13.10;99.90
6210;DHT22;3138;52.550;13.148;2022-07-10T03:24:46;13.10;99.90
6210;DHT22;3138;52.550;13.148;2022-07-10T03:27:14;13.00;99.90
6210;DHT22;3138;52.550;13.148;2022-07-10T03:29:41;13.00;99.90
6210;DHT22;3138;52.550;13.148;2022-07-10T03:32:09;13.00;99.90
6210;DHT22;3138;52.550;13.148;2022-07-10T03:34:35;13.00;99.90
6210;DHT22;3138;52.550;13.148;2022-07-10T03:37:04;13.00;99.90
6210;DHT22;3138;52.550;13.148;2022-07-10T03:39:31;13.00;99.90
6210;DHT22;3138;52.550;13.148;2022-07-10T03:41:57;13.00;99.90
6210;DHT22;3138;52.550;13.148;2022-07-10T03:44:24;13.00;99.90
6210;DHT22;3138;52.550;13.148;2022-07-10T03:46:51;13.00;99.90
6210;DHT22;3138;52.550;13.148;2022-07-10T03:49:18;13.10;99.90
6210;DHT22;3138;52.550;13.148;2022-07-10T03:51:45;13.00;99.90
6210;DHT22;3138;52.550;13.148;2022-07-10T03:54:13;13.10;99.90
6210;DHT22;3138;52.550;13.148;2022-07-10T03:56:39;13.00;99.90
6210;DHT22;3138;52.550;13.148;2022-07-10T03:59:24;13.00;99.90
6210;DHT22;3138;52.550;13.148;2022-07-10T04:01:51;13.10;99.90
6210;DHT22;3138;52.550;13.148;2022-07-10T04:04:17;13.10;99.90
6210;DHT22;3138;52.550;13.148;2022-07-10T04:06:44;13.10;99.90
6210;DHT22;3138;52.550;13.148;2022-07-10T04:09:12;13.10;99.90
6210;DHT22;3138;52.550;13.148;2022-07-10T04:11:39;13.10;99.90
6210;DHT22;3138;52.550;13.148;2022-07-10T04:14:06;13.20;99.90
6210;DHT22;3138;52.550;13.148;2022-07-10T04:16:32;13.20;99.90
6210;DHT22;3138;52.550;13.148;2022-07-10T04:18:59;13.20;99.90
6210;DHT22;3138;52.550;13.148;2022-07-10T04:21:26;13.20;99.90
6210;DHT22;3138;52.550;13.148;2022-07-10T04:23:53;13.20;99.90
6210;DHT22;3138;52.550;13.148;2022-07-10T04:26:21;13.20;99.90
6210;DHT22;3138;52.550;13.148;2022-07-10T04:28:47;13.20;99.90
6210;DHT22;3138;52.550;13.148;2022-07-10T04:31:14;13.20;99.90
6210;DHT22;3138;52.550;13.148;2022-07-10T04:33:41;13.30;99.90
6210;DHT22;3138;52.550;13.148;2022-07-10T04:36:08;13.30;99.90
6210;DHT22;3138;52.550;13.148;2022-07-10T04:38:34;13.40;99.90
6210;DHT22;3138;52.550;13.148;2022-07-10T04:41:01;13.50;99.90
6210;DHT22;3138;52.550;13.148;2022-07-10T04:43:29;13.50;99.90
6210;DHT22;3138;52.550;13.148;2022-07-10T04:45:56;13.50;99.90
6210;DHT22;3138;52.550;13.148;2022-07-10T04:48:23;13.40;99.90
6210;DHT22;3138;52.550;13.148;2022-07-10T04:50:50;13.50;99.90
6210;DHT22;3138;52.550;13.148;2022-07-10T04:53:17;13.60;99.90
6210;DHT22;3138;52.550;13.148;2022-07-10T04:55:44;13.60;99.90
6210;DHT22;3138;52.550;13.148;2022-07-10T04:58:11;13.60;99.90
6210;DHT22;3138;52.550;13.148;2022-07-10T05:00:39;13.70;99.90
6210;DHT22;3138;52.550;13.148;2022-07-10T05:03:06;13.70;99.90
6210;DHT22;3138;52.550;13.148;2022-07-10T05:05:32;13.70;99.90
6210;DHT22;3138;52.550;13.148;2022-07-10T05:07:59;13.70;99.90
6210;DHT22;3138;52.550;13.148;2022-07-10T05:10:26;13.80;99.90
6210;DHT22;3138;52.550;13.148;2022-07-10T05:12:53;13.80;99.90
6210;DHT22;3138;52.550;13.148;2022-07-10T05:15:20;13.80;99.90
6210;DHT22;3138;52.550;13.148;2022-07-10T05:17:48;13.90;99.90
6210;DHT22;3138;52.550;13.148;2022-07-10T05:20:15;13.90;99.90
6210;DHT22;3138;52.550;13.148;2022-07-10T05:22:42;13.90;99.90
6210;DHT22;3138;52.550;13.148;2022-07-10T05:25:09;14.10;99.90
6210;DHT22;3138;52.550;13.148;2022-07-10T05:27:35;14.30;99.90
6210;DHT22;3138;52.550;13.148;2022-07-10T05:30:02;14.30;99.90
6210;DHT22;3138;52.550;13.148;2022-07-10T05:32:29;14.30;99.90
6210;DHT22;3138;52.550;13.148;2022-07-10T05:34:58;14.40;99.90
6210;DHT22;3138;52.550;13.148;2022-07-10T05:37:25;14.30;99.90
6210;DHT22;3138;52.550;13.148;2022-07-10T05:39:52;14.30;99.90
6210;DHT22;3138;52.550;13.148;2022-07-10T05:42:18;14.30;99.90
6210;DHT22;3138;52.550;13.148;2022-07-10T05:44:45;14.50;99.90
6210;DHT22;3138;52.550;13.148;2022-07-10T05:47:12;14.50;99.90
6210;DHT22;3138;52.550;13.148;2022-07-10T05:49:39;14.50;99.90
6210;DHT22;3138;52.550;13.148;2022-07-10T05:52:07;14.40;99.90
6210;DHT22;3138;52.550;13.148;2022-07-10T05:54:34;14.30;99.90
6210;DHT22;3138;52.550;13.148;2022-07-10T05:57:01;14.30;99.90
6210;DHT22;3138;52.550;13.148;2022-07-10T05:59:27;14.30;99.90
6210;DHT22;3138;52.550;13.148;2022-07-10T06:01:54;14.50;99.90
6210;DHT22;3138;52.550;13.148;2022-07-10T06:04:21;14.60;99.90
6210;DHT22;3138;52.550;13.148;2022-07-10T06:06:47;14.60;99.90
6210;DHT22;3138;52.550;13.148;2022-07-10T06:09:15;14.40;99.90
6210;DHT22;3138;52.550;13.148;2022-07-10T06:11:42;14.40;99.90
6210;DHT22;3138;52.550;13.148;2022-07-10T06:14:11;14.50;99.90
6210;DHT22;3138;52.550;13.148;2022-07-10T06:16:38;14.50;99.90
6210;DHT22;3138;52.550;13.148;2022-07-10T06:19:04;14.70;99.90
6210;DHT22;3138;52.550;13.148;2022-07-10T06:21:31;14.70;99.90
6210;DHT22;3138;52.550;13.148;2022-07-10T06:23:58;14.70;99.90
6210;DHT22;3138;52.550;13.148;2022-07-10T06:26:26;14.70;99.90
6210;DHT22;3138;52.550;13.148;2022-07-10T06:28:53;14.80;99.90
6210;DHT22;3138;52.550;13.148;2022-07-10T06:31:20;14.90;99.90
6210;DHT22;3138;52.550;13.148;2022-07-10T06:33:46;15.00;99.90
6210;DHT22;3138;52.550;13.148;2022-07-10T06:36:13;15.10;99.90
6210;DHT22;3138;52.550;13.148;2022-07-10T06:38:40;15.10;99.90
6210;DHT22;3138;52.550;13.148;2022-07-10T06:41:07;15.10;99.90
6210;DHT22;3138;52.550;13.148;2022-07-10T06:43:35;15.20;99.90
6210;DHT22;3138;52.550;13.148;2022-07-10T06:46:01;15.20;99.90
6210;DHT22;3138;52.550;13.148;2022-07-10T06:48:28;15.20;99.90
6210;DHT22;3138;52.550;13.148;2022-07-10T06:50:55;15.20;99.90
6210;DHT22;3138;52.550;13.148;2022-07-10T06:53:22;15.30;99.90
6210;DHT22;3138;52.550;13.148;2022-07-10T06:55:52;15.20;99.90
6210;DHT22;3138;52.550;13.148;2022-07-10T06:58:18;15.10;99.90
6210;DHT22;3138;52.550;13.148;2022-07-10T07:00:47;15.10;99.90
6210;DHT22;3138;52.550;13.148;2022-07-10T07:03:14;15.00;99.90
6210;DHT22;3138;52.550;13.148;2022-07-10T07:05:40;14.90;99.90
6210;DHT22;3138;52.550;13.148;2022-07-10T07:08:07;15.70;99.90
6210;DHT22;3138;52.550;13.148;2022-07-10T07:10:34;16.30;99.90
6210;DHT22;3138;52.550;13.148;2022-07-10T07:13:01;16.80;98.10
6210;DHT22;3138;52.550;13.148;2022-07-10T07:15:28;17.10;95.80
6210;DHT22;3138;52.550;13.148;2022-07-10T07:17:56;17.20;95.60
6210;DHT22;3138;52.550;13.148;2022-07-10T07:20:33;17.00;94.40
6210;DHT22;3138;52.550;13.148;2022-07-10T07:23:17;17.10;89.30
6210;DHT22;3138;52.550;13.148;2022-07-10T07:25:44;17.30;90.20
6210;DHT22;3138;52.550;13.148;2022-07-10T07:28:13;17.30;89.10
6210;DHT22;3138;52.550;13.148;2022-07-10T07:30:42;17.70;87.90
6210;DHT22;3138;52.550;13.148;2022-07-10T07:33:10;17.50;85.50
6210;DHT22;3138;52.550;13.148;2022-07-10T07:35:37;17.30;82.60
6210;DHT22;3138;52.550;13.148;2022-07-10T07:38:04;17.70;82.70
6210;DHT22;3138;52.550;13.148;2022-07-10T07:40:32;17.80;80.00
6210;DHT22;3138;52.550;13.148;2022-07-10T07:42:59;17.20;83.40
6210;DHT22;3138;52.550;13.148;2022-07-10T07:45:26;16.90;84.00
6210;DHT22;3138;52.550;13.148;2022-07-10T07:47:55;16.70;87.20
6210;DHT22;3138;52.550;13.148;2022-07-10T07:50:25;16.70;91.30
6210;DHT22;3138;52.550;13.148;2022-07-10T07:52:52;16.80;92.40
6210;DHT22;3138;52.550;13.148;2022-07-10T07:55:20;16.40;92.50
6210;DHT22;3138;52.550;13.148;2022-07-10T07:57:50;16.30;92.90
6210;DHT22;3138;52.550;13.148;2022-07-10T08:00:17;16.00;93.30
6210;DHT22;3138;52.550;13.148;2022-07-10T08:02:44;16.00;94.70
6210;DHT22;3138;52.550;13.148;2022-07-10T08:05:11;15.90;93.70
6210;DHT22;3138;52.550;13.148;2022-07-10T08:07:41;16.00;93.30
6210;DHT22;3138;52.550;13.148;2022-07-10T08:10:10;16.20;92.60
6210;DHT22;3138;52.550;13.148;2022-07-10T08:12:37;16.20;93.00
6210;DHT22;3138;52.550;13.148;2022-07-10T08:15:06;16.40;92.80
6210;DHT22;3138;52.550;13.148;2022-07-10T08:17:35;16.20;94.10
6210;DHT22;3138;52.550;13.148;2022-07-10T08:20:03;16.10;93.50
6210;DHT22;3138;52.550;13.148;2022-07-10T08:22:31;15.90;94.40
6210;DHT22;3138;52.550;13.148;2022-07-10T08:24:59;15.90;94.40
6210;DHT22;3138;52.550;13.148;2022-07-10T08:27:26;16.00;94.30
6210;DHT22;3138;52.550;13.148;2022-07-10T08:29:53;15.80;94.10
6210;DHT22;3138;52.550;13.148;2022-07-10T08:32:20;15.80;94.10
6210;DHT22;3138;52.550;13.148;2022-07-10T08:34:47;15.90;94.20
6210;DHT22;3138;52.550;13.148;2022-07-10T08:37:14;15.80;93.00
6210;DHT22;3138;52.550;13.148;2022-07-10T08:39:41;16.20;92.90
6210;DHT22;3138;52.550;13.148;2022-07-10T08:42:10;16.50;93.70
6210;DHT22;3138;52.550;13.148;2022-07-10T08:44:38;16.50;91.70
6210;DHT22;3138;52.550;13.148;2022-07-10T08:47:05;16.40;90.00
6210;DHT22;3138;52.550;13.148;2022-07-10T08:49:32;16.50;90.50
6210;DHT22;3138;52.550;13.148;2022-07-10T08:52:03;16.70;90.50
6210;DHT22;3138;52.550;13.148;2022-07-10T08:54:31;17.10;89.90
6210;DHT22;3138;52.550;13.148;2022-07-10T08:57:01;17.20;89.00
6210;DHT22;3138;52.550;13.148;2022-07-10T08:59:30;17.20;88.80
6210;DHT22;3138;52.550;13.148;2022-07-10T09:01:57;17.20;88.00
6210;DHT22;3138;52.550;13.148;2022-07-10T09:04:25;17.10;87.60
6210;DHT22;3138;52.550;13.148;2022-07-10T09:06:53;17.00;87.30
6210;DHT22;3138;52.550;13.148;2022-07-10T09:09:21;17.30;85.90
6210;DHT22;3138;52.550;13.148;2022-07-10T09:11:55;17.70;90.60
6210;DHT22;3138;52.550;13.148;2022-07-10T09:14:23;18.30;85.10
6210;DHT22;3138;52.550;13.148;2022-07-10T09:16:54;18.10;82.90
6210;DHT22;3138;52.550;13.148;2022-07-10T09:19:22;17.80;82.10
6210;DHT22;3138;52.550;13.148;2022-07-10T09:21:51;17.60;85.20
6210;DHT22;3138;52.550;13.148;2022-07-10T09:24:18;17.10;84.80
6210;DHT22;3138;52.550;13.148;2022-07-10T09:26:58;17.50;85.60
6210;DHT22;3138;52.550;13.148;2022-07-10T09:29:26;17.70;86.30
6210;DHT22;3138;52.550;13.148;2022-07-10T09:31:54;17.60;83.90
6210;DHT22;3138;52.550;13.148;2022-07-10T09:34:39;17.60;82.60
6210;DHT22;3138;52.550;13.148;2022-07-10T09:37:22;17.60;85.30
6210;DHT22;3138;52.550;13.148;2022-07-10T09:39:54;17.70;85.10
6210;DHT22;3138;52.550;13.148;2022-07-10T09:42:25;17.60;85.20
6210;DHT22;3138;52.550;13.148;2022-07-10T09:44:52;17.50;81.60
6210;DHT22;3138;52.550;13.148;2022-07-10T09:47:23;17.50;78.80
6210;DHT22;3138;52.550;13.148;2022-07-10T09:49:50;17.70;80.70
6210;DHT22;3138;52.550;13.148;2022-07-10T09:52:18;17.50;78.30
6210;DHT22;3138;52.550;13.148;2022-07-10T09:54:45;17.90;78.70
6210;DHT22;3138;52.550;13.148;2022-07-10T09:57:13;18.50;78.20
6210;DHT22;3138;52.550;13.148;2022-07-10T09:59:44;18.30;75.40
6210;DHT22;3138;52.550;13.148;2022-07-10T10:02:11;17.70;76.50
6210;DHT22;3138;52.550;13.148;2022-07-10T10:04:41;17.90;77.70
6210;DHT22;3138;52.550;13.148;2022-07-10T10:07:11;17.60;75.70
6210;DHT22;3138;52.550;13.148;2022-07-10T10:09:41;17.90;78.20
6210;DHT22;3138;52.550;13.148;2022-07-10T10:12:16;18.20;73.70
6210;DHT22;3138;52.550;13.148;2022-07-10T10:14:43;18.50;73.50
6210;DHT22;3138;52.550;13.148;2022-07-10T10:17:11;18.30;71.90
6210;DHT22;3138;52.550;13.148;2022-07-10T10:19:40;18.40;70.80
6210;DHT22;3138;52.550;13.148;2022-07-10T10:22:26;18.40;72.40
6210;DHT22;3138;52.550;13.148;2022-07-10T10:24:54;18.30;71.80
6210;DHT22;3138;52.550;13.148;2022-07-10T10:27:21;18.40;72.90
6210;DHT22;3138;52.550;13.148;2022-07-10T10:29:50;18.70;73.20
6210;DHT22;3138;52.550;13.148;2022-07-10T10:32:17;18.20;72.60
6210;DHT22;3138;52.550;13.148;2022-07-10T10:34:47;18.30;75.20
6210;DHT22;3138;52.550;13.148;2022-07-10T10:37:37;18.10;74.60
6210;DHT22;3138;52.550;13.148;2022-07-10T10:40:07;18.20;76.70
6210;DHT22;3138;52.550;13.148;2022-07-10T10:42:36;18.20;75.60
6210;DHT22;3138;52.550;13.148;2022-07-10T10:48:06;18.70;72.00
6210;DHT22;3138;52.550;13.148;2022-07-10T10:50:39;18.90;70.70
6210;DHT22;3138;52.550;13.148;2022-07-10T10:53:14;18.90;72.90
6210;DHT22;3138;52.550;13.148;2022-07-10T10:58:47;19.30;69.20
6210;DHT22;3138;52.550;13.148;2022-07-10T11:01:24;18.60;68.30
6210;DHT22;3138;52.550;13.148;2022-07-10T11:04:13;18.60;69.80
6210;DHT22;3138;52.550;13.148;2022-07-10T11:06:43;18.50;72.80
6210;DHT22;3138;52.550;13.148;2022-07-10T11:09:27;18.10;70.70
6210;DHT22;3138;52.550;13.148;2022-07-10T11:11:58;18.00;72.40
6210;DHT22;3138;52.550;13.148;2022-07-10T11:14:27;18.10;73.40
6210;DHT22;3138;52.550;13.148;2022-07-10T11:16:54;18.10;73.00
6210;DHT22;3138;52.550;13.148;2022-07-10T11:19:22;18.30;73.50
6210;DHT22;3138;52.550;13.148;2022-07-10T11:21:58;18.50;72.10
6210;DHT22;3138;52.550;13.148;2022-07-10T11:24:40;19.00;72.60
6210;DHT22;3138;52.550;13.148;2022-07-10T11:27:28;19.20;74.00
6210;DHT22;3138;52.550;13.148;2022-07-10T11:29:58;19.10;72.10
6210;DHT22;3138;52.550;13.148;2022-07-10T11:32:25;20.20;71.90
6210;DHT22;3138;52.550;13.148;2022-07-10T11:34:53;20.10;68.00
6210;DHT22;3138;52.550;13.148;2022-07-10T11:37:21;20.40;70.00
6210;DHT22;3138;52.550;13.148;2022-07-10T11:40:08;19.90;69.70
6210;DHT22;3138;52.550;13.148;2022-07-10T11:42:48;19.90;67.80
6210;DHT22;3138;52.550;13.148;2022-07-10T11:45:23;19.10;67.20
6210;DHT22;3138;52.550;13.148;2022-07-10T11:47:50;18.90;64.30
6210;DHT22;3138;52.550;13.148;2022-07-10T11:50:17;18.90;65.90
6210;DHT22;3138;52.550;13.148;2022-07-10T11:52:46;18.80;66.50
6210;DHT22;3138;52.550;13.148;2022-07-10T11:55:14;18.70;66.30
6210;DHT22;3138;52.550;13.148;2022-07-10T11:57:41;18.90;66.70
6210;DHT22;3138;52.550;13.148;2022-07-10T12:00:21;19.20;66.00
6210;DHT22;3138;52.550;13.148;2022-07-10T12:02:49;19.80;67.00
6210;DHT22;3138;52.550;13.148;2022-07-10T12:05:30;20.00;66.30
6210;DHT22;3138;52.550;13.148;2022-07-10T12:07:58;19.30;66.50
6210;DHT22;3138;52.550;13.148;2022-07-10T12:10:26;19.00;66.00
6210;DHT22;3138;52.550;13.148;2022-07-10T12:12:53;19.20;69.40
6210;DHT22;3138;52.550;13.148;2022-07-10T12:15:33;19.10;67.00
6210;DHT22;3138;52.550;13.148;2022-07-10T12:18:02;19.60;64.90
6210;DHT22;3138;52.550;13.148;2022-07-10T12:20:29;19.60;64.10
6210;DHT22;3138;52.550;13.148;2022-07-10T12:22:57;19.40;64.50
6210;DHT22;3138;52.550;13.148;2022-07-10T12:25:25;18.90;65.60
6210;DHT22;3138;52.550;13.148;2022-07-10T12:27:55;18.90;65.70
6210;DHT22;3138;52.550;13.148;2022-07-10T12:30:22;19.00;65.90
6210;DHT22;3138;52.550;13.148;2022-07-10T12:32:49;18.70;64.80
6210;DHT22;3138;52.550;13.148;2022-07-10T12:35:16;18.80;65.80
6210;DHT22;3138;52.550;13.148;2022-07-10T12:37:48;19.10;67.20
6210;DHT22;3138;52.550;13.148;2022-07-10T12:40:32;19.50;66.40
6210;DHT22;3138;52.550;13.148;2022-07-10T12:43:02;19.40;65.20
6210;DHT22;3138;52.550;13.148;2022-07-10T12:45:30;19.30;65.30
6210;DHT22;3138;52.550;13.148;2022-07-10T12:47:57;19.40;64.90
6210;DHT22;3138;52.550;13.148;2022-07-10T12:50:24;19.50;63.60
6210;DHT22;3138;52.550;13.148;2022-07-10T12:53:07;19.90;64.80
6210;DHT22;3138;52.550;13.148;2022-07-10T12:55:38;19.80;65.20
6210;DHT22;3138;52.550;13.148;2022-07-10T12:58:07;19.70;63.20
6210;DHT22;3138;52.550;13.148;2022-07-10T13:00:43;19.60;64.50
6210;DHT22;3138;52.550;13.148;2022-07-10T13:03:11;19.50;64.80
6210;DHT22;3138;52.550;13.148;2022-07-10T13:05:43;19.70;68.40
6210;DHT22;3138;52.550;13.148;2022-07-10T13:08:11;19.60;66.60
6210;DHT22;3138;52.550;13.148;2022-07-10T13:10:42;19.50;65.60
6210;DHT22;3138;52.550;13.148;2022-07-10T13:13:10;19.70;63.70
6210;DHT22;3138;52.550;13.148;2022-07-10T13:15:37;19.80;65.40
6210;DHT22;3138;52.550;13.148;2022-07-10T13:18:07;19.70;64.30
6210;DHT22;3138;52.550;13.148;2022-07-10T13:20:34;19.60;60.90
6210;DHT22;3138;52.550;13.148;2022-07-10T13:23:00;19.80;60.90
6210;DHT22;3138;52.550;13.148;2022-07-10T13:25:27;19.70;62.50
6210;DHT22;3138;52.550;13.148;2022-07-10T13:27:55;19.70;63.80
6210;DHT22;3138;52.550;13.148;2022-07-10T13:30:22;19.60;64.50
6210;DHT22;3138;52.550;13.148;2022-07-10T13:32:49;19.60;64.50
6210;DHT22;3138;52.550;13.148;2022-07-10T13:35:16;19.70;64.50
6210;DHT22;3138;52.550;13.148;2022-07-10T13:37:43;20.00;64.60
6210;DHT22;3138;52.550;13.148;2022-07-10T13:40:10;20.30;61.60
6210;DHT22;3138;52.550;13.148;2022-07-10T13:42:37;20.20;60.80
6210;DHT22;3138;52.550;13.148;2022-07-10T13:45:06;20.00;62.40
6210;DHT22;3138;52.550;13.148;2022-07-10T13:47:34;19.80;60.10
6210;DHT22;3138;52.550;13.148;2022-07-10T13:50:01;19.90;61.60
6210;DHT22;3138;52.550;13.148;2022-07-10T13:52:28;19.90;61.70
6210;DHT22;3138;52.550;13.148;2022-07-10T13:54:55;20.20;60.90
6210;DHT22;3138;52.550;13.148;2022-07-10T13:57:23;20.30;59.90
6210;DHT22;3138;52.550;13.148;2022-07-10T13:59:50;20.50;60.20
6210;DHT22;3138;52.550;13.148;2022-07-10T14:02:18;20.50;59.30
6210;DHT22;3138;52.550;13.148;2022-07-10T14:04:45;20.60;59.20
6210;DHT22;3138;52.550;13.148;2022-07-10T14:07:12;21.00;58.60
6210;DHT22;3138;52.550;13.148;2022-07-10T14:09:39;20.50;58.40
6210;DHT22;3138;52.550;13.148;2022-07-10T14:12:06;20.00;58.50
6210;DHT22;3138;52.550;13.148;2022-07-10T14:14:33;20.00;58.90
6210;DHT22;3138;52.550;13.148;2022-07-10T14:17:00;19.60;59.00
6210;DHT22;3138;52.550;13.148;2022-07-10T14:19:28;20.30;60.20
6210;DHT22;3138;52.550;13.148;2022-07-10T14:21:55;21.00;60.70
6210;DHT22;3138;52.550;13.148;2022-07-10T14:24:23;20.70;58.80
6210;DHT22;3138;52.550;13.148;2022-07-10T14:26:50;20.70;57.60
6210;DHT22;3138;52.550;13.148;2022-07-10T14:29:19;20.90;57.20
6210;DHT22;3138;52.550;13.148;2022-07-10T14:31:46;21.30;57.50
6210;DHT22;3138;52.550;13.148;2022-07-10T14:34:14;21.00;55.80
6210;DHT22;3138;52.550;13.148;2022-07-10T14:36:42;21.00;57.60
6210;DHT22;3138;52.550;13.148;2022-07-10T14:39:09;21.30;58.10
6210;DHT22;3138;52.550;13.148;2022-07-10T14:41:37;21.80;57.60
6210;DHT22;3138;52.550;13.148;2022-07-10T14:44:04;21.80;55.90
6210;DHT22;3138;52.550;13.148;2022-07-10T14:46:31;21.50;55.70
6210;DHT22;3138;52.550;13.148;2022-07-10T14:48:58;20.80;56.30
6210;DHT22;3138;52.550;13.148;2022-07-10T14:51:25;20.40;57.30
6210;DHT22;3138;52.550;13.148;2022-07-10T14:53:53;20.40;57.20
6210;DHT22;3138;52.550;13.148;2022-07-10T14:56:21;20.20;58.20
6210;DHT22;3138;52.550;13.148;2022-07-10T14:58:49;20.30;58.80
6210;DHT22;3138;52.550;13.148;2022-07-10T15:01:16;20.20;56.80
6210;DHT22;3138;52.550;13.148;2022-07-10T15:03:43;19.90;57.70
6210;DHT22;3138;52.550;13.148;2022-07-10T15:06:10;19.90;58.10
6210;DHT22;3138;52.550;13.148;2022-07-10T15:08:37;19.70;57.50
6210;DHT22;3138;52.550;13.148;2022-07-10T15:11:05;19.70;58.10
6210;DHT22;3138;52.550;13.148;2022-07-10T15:13:33;19.70;58.70
6210;DHT22;3138;52.550;13.148;2022-07-10T15:16:00;19.70;59.10
6210;DHT22;3138;52.550;13.148;2022-07-10T15:18:27;19.50;58.00
6210;DHT22;3138;52.550;13.148;2022-07-10T15:20:53;19.50;58.00
6210;DHT22;3138;52.550;13.148;2022-07-10T15:23:20;19.70;58.40
6210;DHT22;3138;52.550;13.148;2022-07-10T15:25:47;19.50;57.60
6210;DHT22;3138;52.550;13.148;2022-07-10T15:28:15;20.00;57.80
6210;DHT22;3138;52.550;13.148;2022-07-10T15:30:42;20.60;58.10
6210;DHT22;3138;52.550;13.148;2022-07-10T15:33:09;20.80;59.00
6210;DHT22;3138;52.550;13.148;2022-07-10T15:35:36;20.60;56.90
6210;DHT22;3138;52.550;13.148;2022-07-10T15:38:02;20.40;56.50
6210;DHT22;3138;52.550;13.148;2022-07-10T15:40:30;20.10;56.90
6210;DHT22;3138;52.550;13.148;2022-07-10T15:42:57;20.30;58.50
6210;DHT22;3138;52.550;13.148;2022-07-10T15:45:26;20.50;58.80
6210;DHT22;3138;52.550;13.148;2022-07-10T15:47:53;20.40;57.40
6210;DHT22;3138;52.550;13.148;2022-07-10T15:50:20;20.70;57.50
6210;DHT22;3138;52.550;13.148;2022-07-10T15:52:47;20.70;56.60
6210;DHT22;3138;52.550;13.148;2022-07-10T15:55:14;20.60;56.60
6210;DHT22;3138;52.550;13.148;2022-07-10T15:57:40;20.30;57.30